createdAt,value
2023-02-17T00:00:29.598Z,79.43
2023-02-17T00:02:58.053Z,79.50
2023-02-17T00:05:26.434Z,79.20
2023-02-17T00:07:54.700Z,78.84
2023-02-17T00:10:22.516Z,79.02
2023-02-17T00:12:50.615Z,79.21
2023-02-17T00:15:18.451Z,79.02
2023-02-17T00:17:47.583Z,79.10
2023-02-17T00:20:15.657Z,79.08
2023-02-17T00:22:43.460Z,79.14
2023-02-17T00:25:11.276Z,79.18
2023-02-17T00:27:39.311Z,79.68
2023-02-17T00:30:09.182Z,80.24
2023-02-17T00:32:37.809Z,80.12
2023-02-17T00:35:08.422Z,80.11
2023-02-17T00:37:36.497Z,80.27
2023-02-17T00:40:04.735Z,79.90
2023-02-17T00:42:32.547Z,80.11
2023-02-17T00:45:00.401Z,81.27
2023-02-17T00:47:28.351Z,81.89
2023-02-17T00:49:56.174Z,82.47
2023-02-17T00:52:25.467Z,82.13
2023-02-17T00:54:53.740Z,82.27
2023-02-17T00:57:22.181Z,82.56
2023-02-17T00:59:49.995Z,83.12
2023-02-17T01:02:20.405Z,83.56
2023-02-17T01:04:48.393Z,83.82
2023-02-17T01:07:16.144Z,83.83
2023-02-17T01:09:45.532Z,83.64
2023-02-17T01:12:13.287Z,83.72
2023-02-17T01:14:41.243Z,83.71
2023-02-17T01:17:09.211Z,84.06
2023-02-17T01:19:37.024Z,83.79
2023-02-17T01:22:04.969Z,83.95
2023-02-17T01:24:32.912Z,83.99
2023-02-17T01:27:02.011Z,84.17
2023-02-17T01:29:29.757Z,83.96
2023-02-17T01:31:57.614Z,83.71
2023-02-17T01:34:25.372Z,83.78
2023-02-17T01:36:53.086Z,83.72
2023-02-17T01:39:20.823Z,83.36
2023-02-17T01:41:48.690Z,83.67
2023-02-17T01:44:19.518Z,83.48
2023-02-17T01:46:49.186Z,83.47
2023-02-17T01:49:23.635Z,83.39
2023-02-17T01:51:55.120Z,83.09
2023-02-17T01:54:26.661Z,82.97
2023-02-17T01:56:55.810Z,83.08
2023-02-17T01:59:24.923Z,83.01
2023-02-17T02:01:56.751Z,82.94
2023-02-17T02:04:27.493Z,82.94
2023-02-17T02:06:55.678Z,82.81
2023-02-17T02:09:26.200Z,82.98
2023-02-17T02:11:53.979Z,82.48
2023-02-17T02:14:23.908Z,82.68
2023-02-17T02:16:56.057Z,82.93
2023-02-17T02:19:58.994Z,82.90
2023-02-17T02:22:54.918Z,82.94
2023-02-17T02:25:45.980Z,83.05
2023-02-17T02:28:22.615Z,83.07
2023-02-17T02:31:19.964Z,83.20
2023-02-17T02:33:51.901Z,82.96
2023-02-17T02:36:22.755Z,83.19
2023-02-17T02:38:54.764Z,83.20
2023-02-17T02:41:25.334Z,83.08
2023-02-17T02:43:53.298Z,83.21
2023-02-17T02:46:21.107Z,83.08
2023-02-17T02:48:51.554Z,83.55
2023-02-17T02:51:30.423Z,83.18
2023-02-17T02:54:22.370Z,83.67
2023-02-17T02:57:01.889Z,83.90
2023-02-17T02:59:39.380Z,83.57
2023-02-17T03:02:12.613Z,83.73
2023-02-17T03:04:46.060Z,83.91
2023-02-17T03:07:21.355Z,83.81
2023-02-17T03:09:49.645Z,83.78
2023-02-17T03:12:17.659Z,84.12
2023-02-17T03:14:46.339Z,83.94
2023-02-17T03:17:14.379Z,84.22
2023-02-17T03:19:45.573Z,84.00
2023-02-17T03:22:18.479Z,84.67
2023-02-17T03:24:46.335Z,84.58
2023-02-17T03:27:14.156Z,84.64
2023-02-17T03:29:42.309Z,84.57
2023-02-17T03:32:10.340Z,84.22
2023-02-17T03:34:38.196Z,84.28
2023-02-17T03:37:07.456Z,84.81
2023-02-17T03:39:35.277Z,84.96
2023-02-17T03:42:03.324Z,85.36
2023-02-17T03:44:31.109Z,85.28
2023-02-17T03:46:58.913Z,85.42
2023-02-17T03:49:26.764Z,85.59
2023-02-17T03:51:54.591Z,85.46
2023-02-17T03:54:23.770Z,85.98
2023-02-17T03:56:51.575Z,86.12
2023-02-17T03:59:19.451Z,86.27
2023-02-17T04:01:47.214Z,86.38
2023-02-17T04:04:15.335Z,86.80
2023-02-17T04:06:43.120Z,87.03
2023-02-17T04:09:11.138Z,87.12
2023-02-17T04:11:40.273Z,86.99
2023-02-17T04:14:08.295Z,87.22
2023-02-17T04:16:39.057Z,87.07
2023-02-17T04:19:07.339Z,87.52
2023-02-17T04:21:35.614Z,87.59
2023-02-17T04:24:03.788Z,87.81
2023-02-17T04:26:31.881Z,87.79
2023-02-17T04:29:01.251Z,87.84
2023-02-17T04:31:29.268Z,87.80
2023-02-17T04:33:57.166Z,88.23
2023-02-17T04:36:24.951Z,88.20
2023-02-17T04:38:52.740Z,88.41
2023-02-17T04:41:20.520Z,88.48
2023-02-17T04:43:48.547Z,88.71
2023-02-17T04:46:17.906Z,88.85
2023-02-17T04:48:45.755Z,88.83
2023-02-17T04:51:13.532Z,88.75
2023-02-17T04:53:41.565Z,89.10
2023-02-17T04:56:09.387Z,88.96
2023-02-17T04:58:37.237Z,88.88
2023-02-17T05:01:05.472Z,89.32
2023-02-17T05:03:34.654Z,89.34
2023-02-17T05:06:02.431Z,89.48
2023-02-17T05:08:30.297Z,89.45
2023-02-17T05:10:58.069Z,89.40
2023-02-17T05:13:27.529Z,89.78
2023-02-17T05:15:55.342Z,89.72
2023-02-17T05:18:23.116Z,89.92
2023-02-17T05:20:52.850Z,90.00
2023-02-17T05:23:20.701Z,89.99
2023-02-17T05:25:48.494Z,90.05
2023-02-17T05:28:16.276Z,89.94
2023-02-17T05:30:44.017Z,89.94
2023-02-17T05:33:11.768Z,90.08
2023-02-17T05:35:39.970Z,90.17
2023-02-17T05:38:09.319Z,90.35
2023-02-17T05:40:37.191Z,90.35
2023-02-17T05:43:05.049Z,89.91
2023-02-17T05:45:32.822Z,90.60
2023-02-17T05:48:00.645Z,90.43
2023-02-17T05:50:28.475Z,90.34
2023-02-17T05:52:56.250Z,90.31
2023-02-17T05:55:25.393Z,90.13
2023-02-17T05:57:53.170Z,89.82
2023-02-17T06:00:21.178Z,89.84
2023-02-17T06:02:49.077Z,89.67
2023-02-17T06:05:17.307Z,89.53
2023-02-17T06:07:45.137Z,89.65
2023-02-17T06:10:13.094Z,89.39
2023-02-17T06:12:42.253Z,89.73
2023-02-17T06:15:10.524Z,89.91
2023-02-17T06:17:38.384Z,89.86
2023-02-17T06:20:07.482Z,89.94
2023-02-17T06:22:35.276Z,89.89
2023-02-17T06:25:03.122Z,90.06
2023-02-17T06:27:30.873Z,90.30
2023-02-17T06:30:00.134Z,90.34
2023-02-17T06:32:27.906Z,90.33
2023-02-17T06:34:55.699Z,90.37
2023-02-17T06:37:23.837Z,90.41
2023-02-17T06:39:51.642Z,90.38
2023-02-17T06:42:19.420Z,90.18
2023-02-17T06:44:48.203Z,90.02
2023-02-17T06:47:17.362Z,89.65
2023-02-17T06:49:45.142Z,88.82
2023-02-17T06:52:13.015Z,88.64
2023-02-17T06:54:40.823Z,87.77
2023-02-17T06:57:08.589Z,87.08
2023-02-17T06:59:36.516Z,86.69
2023-02-17T07:02:04.360Z,86.00
2023-02-17T07:04:33.834Z,85.38
2023-02-17T07:07:01.585Z,84.62
2023-02-17T07:09:29.368Z,83.88
2023-02-17T07:11:57.544Z,83.85
2023-02-17T07:14:25.723Z,83.70
2023-02-17T07:16:53.961Z,83.59
2023-02-17T07:19:22.128Z,83.61
2023-02-17T07:21:51.308Z,83.42
2023-02-17T07:24:19.484Z,83.85
2023-02-17T07:26:47.339Z,84.06
2023-02-17T07:29:15.122Z,84.55
2023-02-17T07:31:43.100Z,84.96
2023-02-17T07:34:10.892Z,85.30
2023-02-17T07:36:38.667Z,86.03
2023-02-17T07:39:08.153Z,86.25
2023-02-17T07:41:35.923Z,86.58
2023-02-17T07:44:03.703Z,86.58
2023-02-17T07:46:31.572Z,86.97
2023-02-17T07:48:59.441Z,86.89
2023-02-17T07:51:28.346Z,87.43
2023-02-17T07:53:56.281Z,87.21
2023-02-17T07:56:25.909Z,87.24
2023-02-17T07:58:53.744Z,87.32
2023-02-17T08:01:23.226Z,87.31
2023-02-17T08:03:52.060Z,87.37
2023-02-17T08:06:21.217Z,87.22
2023-02-17T08:09:07.214Z,87.64
2023-02-17T08:11:53.987Z,87.57
2023-02-17T08:14:22.354Z,87.70
2023-02-17T08:16:50.216Z,87.21
2023-02-17T08:19:18.288Z,87.41
2023-02-17T08:21:46.298Z,87.22
2023-02-17T08:24:14.253Z,86.93
2023-02-17T08:26:43.572Z,87.06
2023-02-17T08:29:11.376Z,87.28
2023-02-17T08:31:39.701Z,87.49
2023-02-17T08:34:09.808Z,87.35
2023-02-17T08:36:38.481Z,86.98
2023-02-17T08:39:07.024Z,87.29
2023-02-17T08:41:36.988Z,87.27
2023-02-17T08:44:09.703Z,87.05
2023-02-17T08:46:38.197Z,86.63
2023-02-17T08:49:06.996Z,87.15
2023-02-17T08:51:35.757Z,86.93
2023-02-17T08:54:04.896Z,87.02
2023-02-17T08:56:32.814Z,87.23
2023-02-17T08:59:01.121Z,87.81
2023-02-17T09:01:30.616Z,87.07
2023-02-17T09:03:59.989Z,87.53
2023-02-17T09:06:33.751Z,87.45
2023-02-17T09:09:01.557Z,87.62
2023-02-17T09:11:29.525Z,87.78
2023-02-17T09:13:57.313Z,87.67
2023-02-17T09:16:25.396Z,87.44
2023-02-17T09:18:54.825Z,86.84
2023-02-17T09:21:23.161Z,87.31
2023-02-17T09:23:51.157Z,86.80
2023-02-17T09:26:19.576Z,86.89
2023-02-17T09:28:48.198Z,87.02
2023-02-17T09:31:18.731Z,86.45
2023-02-17T09:33:47.813Z,86.20
2023-02-17T09:36:18.577Z,86.30
2023-02-17T09:38:46.633Z,86.18
2023-02-17T09:41:19.876Z,86.09
2023-02-17T09:43:47.912Z,85.81
2023-02-17T09:46:19.173Z,85.71
2023-02-17T09:48:49.578Z,86.19
2023-02-17T09:51:23.648Z,86.47
2023-02-17T09:53:54.948Z,86.65
2023-02-17T09:56:26.398Z,86.04
2023-02-17T09:58:55.289Z,86.21
2023-02-17T10:01:27.466Z,85.33
2023-02-17T10:03:59.109Z,86.06
2023-02-17T10:06:30.847Z,85.47
2023-02-17T10:09:02.390Z,85.30
2023-02-17T10:11:33.792Z,85.03
2023-02-17T10:14:04.696Z,84.96
2023-02-17T10:16:37.281Z,84.87
2023-02-17T10:19:11.799Z,84.68
2023-02-17T10:21:44.231Z,84.01
2023-02-17T10:24:12.016Z,84.11
2023-02-17T10:26:50.229Z,84.30
2023-02-17T10:29:23.683Z,83.52
2023-02-17T10:32:02.689Z,83.92
2023-02-17T10:34:36.222Z,83.56
2023-02-17T10:37:06.716Z,83.46
2023-02-17T10:39:45.491Z,83.62
2023-02-17T10:42:20.482Z,83.38
2023-02-17T10:44:50.035Z,82.98
2023-02-17T10:47:18.108Z,83.29
2023-02-17T10:49:49.898Z,83.08
2023-02-17T10:52:20.377Z,82.95
2023-02-17T10:54:52.105Z,82.88
2023-02-17T10:57:21.350Z,82.96
2023-02-17T10:59:50.587Z,82.86
2023-02-17T11:02:20.753Z,82.32
2023-02-17T11:04:50.168Z,82.23
2023-02-17T11:07:21.222Z,81.95
2023-02-17T11:09:54.614Z,81.70
2023-02-17T11:12:24.432Z,81.33
2023-02-17T11:14:54.911Z,80.87
2023-02-17T11:17:26.763Z,80.39
2023-02-17T11:20:04.000Z,80.35
2023-02-17T11:22:37.188Z,80.54
2023-02-17T11:25:08.232Z,80.15
2023-02-17T11:27:36.165Z,79.95
2023-02-17T11:30:15.291Z,79.96
2023-02-17T11:32:43.098Z,79.60
2023-02-17T11:35:22.411Z,79.35
2023-02-17T11:37:51.999Z,79.53
2023-02-17T11:40:27.116Z,79.18
2023-02-17T11:42:59.430Z,78.68
2023-02-17T11:45:29.389Z,78.50
2023-02-17T11:48:09.431Z,78.50
2023-02-17T11:50:42.570Z,77.94
2023-02-17T11:53:22.790Z,78.54
2023-02-17T11:55:59.443Z,77.98
2023-02-17T11:58:35.281Z,78.65
2023-02-17T12:01:10.335Z,78.31
2023-02-17T12:03:47.647Z,78.24
2023-02-17T12:06:19.337Z,78.16
2023-02-17T12:08:59.317Z,78.46
2023-02-17T12:11:31.855Z,78.37
2023-02-17T12:14:13.398Z,77.93
2023-02-17T12:16:48.388Z,78.42
2023-02-17T12:19:29.804Z,78.00
2023-02-17T12:22:04.806Z,78.64
2023-02-17T12:24:42.601Z,78.60
2023-02-17T12:27:29.529Z,78.77
2023-02-17T12:30:05.945Z,79.14
2023-02-17T12:32:44.762Z,78.66
2023-02-17T12:35:17.345Z,78.72
2023-02-17T12:37:50.629Z,78.66
2023-02-17T12:40:26.967Z,78.55
2023-02-17T12:42:57.965Z,78.65
2023-02-17T12:45:31.516Z,78.45
2023-02-17T12:48:03.327Z,78.39
2023-02-17T12:50:34.683Z,78.24
2023-02-17T12:53:06.406Z,78.15
2023-02-17T12:55:38.821Z,77.96
2023-02-17T12:58:09.345Z,78.01
2023-02-17T13:00:40.691Z,78.01
2023-02-17T13:03:09.022Z,77.61
2023-02-17T13:05:40.257Z,77.40
2023-02-17T13:08:09.461Z,77.36
2023-02-17T13:10:40.174Z,77.52
2023-02-17T13:13:11.001Z,77.84
2023-02-17T13:15:42.311Z,77.28
2023-02-17T13:18:14.194Z,77.12
2023-02-17T13:21:00.667Z,76.87
2023-02-17T13:23:38.113Z,76.64
2023-02-17T13:26:31.832Z,76.59
2023-02-17T13:29:33.451Z,76.38
2023-02-17T13:32:03.496Z,76.27
2023-02-17T13:34:35.002Z,76.08
2023-02-17T13:37:15.183Z,76.50
2023-02-17T13:39:43.111Z,76.36
2023-02-17T13:42:44.201Z,75.98
2023-02-17T13:45:16.040Z,75.76
2023-02-17T13:47:44.366Z,76.27
2023-02-17T13:50:29.208Z,76.47
2023-02-17T13:52:57.512Z,76.54
2023-02-17T13:55:25.483Z,76.36
2023-02-17T13:57:55.697Z,76.75
2023-02-17T14:00:25.906Z,76.71
2023-02-17T14:02:55.580Z,76.62
2023-02-17T14:05:28.048Z,76.81
2023-02-17T14:07:59.681Z,76.67
2023-02-17T14:10:28.388Z,76.90
2023-02-17T14:12:59.221Z,76.71
2023-02-17T14:15:29.245Z,76.90
2023-02-17T14:17:57.542Z,76.71
2023-02-17T14:20:31.572Z,76.84
2023-02-17T14:23:05.213Z,76.51
2023-02-17T14:25:35.551Z,76.90
2023-02-17T14:28:05.088Z,76.75
2023-02-17T14:30:34.827Z,76.86
2023-02-17T14:33:07.004Z,76.86
2023-02-17T14:35:35.710Z,76.53
2023-02-17T14:38:11.567Z,77.04
2023-02-17T14:40:40.296Z,76.74
2023-02-17T14:43:09.526Z,76.76
2023-02-17T14:45:37.311Z,76.87
2023-02-17T14:48:05.402Z,76.64
2023-02-17T14:50:33.343Z,76.33
2023-02-17T14:53:01.169Z,76.20
2023-02-17T14:55:33.717Z,76.20
2023-02-17T14:58:01.634Z,76.17
2023-02-17T15:00:30.878Z,75.75
2023-02-17T15:02:58.759Z,76.11
2023-02-17T15:05:26.578Z,75.56
2023-02-17T15:07:54.449Z,75.81
2023-02-17T15:10:26.680Z,75.50
2023-02-17T15:12:54.962Z,75.99
2023-02-17T15:15:23.082Z,75.80
2023-02-17T15:17:52.269Z,75.99
2023-02-17T15:20:20.129Z,76.02
2023-02-17T15:22:52.668Z,76.17
2023-02-17T15:25:23.168Z,75.77
2023-02-17T15:27:51.309Z,75.98
2023-02-17T15:30:20.402Z,76.16
2023-02-17T15:32:48.688Z,76.29
2023-02-17T15:35:20.687Z,76.52
2023-02-17T15:37:48.488Z,76.64
2023-02-17T15:40:18.500Z,76.22
2023-02-17T15:42:47.838Z,76.55
2023-02-17T15:45:18.357Z,76.27
2023-02-17T15:47:46.369Z,76.64
2023-02-17T15:50:19.194Z,76.36
2023-02-17T15:52:50.065Z,76.79
2023-02-17T15:55:18.747Z,76.81
2023-02-17T15:57:48.663Z,77.06
2023-02-17T16:00:21.916Z,77.06
2023-02-17T16:02:50.206Z,77.33
2023-02-17T16:05:20.378Z,77.25
2023-02-17T16:07:49.637Z,77.22
2023-02-17T16:10:18.886Z,77.29
2023-02-17T16:12:47.113Z,77.15
2023-02-17T16:15:16.499Z,77.38
2023-02-17T16:17:44.407Z,77.23
2023-02-17T16:20:16.748Z,77.23
2023-02-17T16:22:45.687Z,76.79
2023-02-17T16:25:16.657Z,77.22
2023-02-17T16:27:45.694Z,76.81
2023-02-17T16:30:18.197Z,76.95
2023-02-17T16:32:46.526Z,76.58
2023-02-17T16:35:15.902Z,76.60
2023-02-17T16:37:46.840Z,76.30
2023-02-17T16:40:17.763Z,76.44
2023-02-17T16:42:45.699Z,76.43
2023-02-17T16:45:17.786Z,76.11
2023-02-17T16:47:47.617Z,75.85
2023-02-17T16:50:19.325Z,75.98
2023-02-17T16:52:47.173Z,75.14
2023-02-17T16:55:20.372Z,75.23
2023-02-17T16:57:48.599Z,75.17
2023-02-17T17:00:18.889Z,75.23
2023-02-17T17:02:46.978Z,75.20
2023-02-17T17:05:14.828Z,75.15
2023-02-17T17:07:42.988Z,75.26
2023-02-17T17:10:17.033Z,75.38
2023-02-17T17:12:47.446Z,75.38
2023-02-17T17:15:16.345Z,75.29
2023-02-17T17:17:46.206Z,75.22
2023-02-17T17:20:16.420Z,75.14
2023-02-17T17:22:46.643Z,75.29
2023-02-17T17:25:14.934Z,75.04
2023-02-17T17:27:42.932Z,75.00
2023-02-17T17:30:17.320Z,74.82
2023-02-17T17:32:45.172Z,74.41
2023-02-17T17:35:12.982Z,74.61
2023-02-17T17:37:40.807Z,74.76
2023-02-17T17:40:11.771Z,74.65
2023-02-17T17:42:39.533Z,74.86
2023-02-17T17:45:07.532Z,74.95
2023-02-17T17:47:36.648Z,74.97
2023-02-17T17:50:04.512Z,74.80
2023-02-17T17:52:32.533Z,75.11
2023-02-17T17:55:00.310Z,74.82
2023-02-17T17:57:28.142Z,74.98
2023-02-17T17:59:55.889Z,75.30
2023-02-17T18:02:23.706Z,75.22
2023-02-17T18:04:52.852Z,75.54
2023-02-17T18:07:20.670Z,75.58
2023-02-17T18:09:48.501Z,75.45
2023-02-17T18:12:17.579Z,75.33
2023-02-17T18:14:46.040Z,75.48
2023-02-17T18:17:15.729Z,75.69
2023-02-17T18:19:43.488Z,75.45
2023-02-17T18:22:12.615Z,75.81
2023-02-17T18:24:41.267Z,76.48
2023-02-17T18:27:09.087Z,77.10
2023-02-17T18:29:36.826Z,77.64
2023-02-17T18:32:04.747Z,78.03
2023-02-17T18:34:32.666Z,79.37
2023-02-17T18:37:00.462Z,79.62
2023-02-17T18:39:29.630Z,80.65
2023-02-17T18:41:57.418Z,81.26
2023-02-17T18:44:25.183Z,82.12
2023-02-17T18:46:52.959Z,82.44
2023-02-17T18:49:20.806Z,82.62
2023-02-17T18:51:48.651Z,83.21
2023-02-17T18:54:16.474Z,84.27
2023-02-17T18:56:45.594Z,84.29
2023-02-17T18:59:13.453Z,84.22
2023-02-17T19:01:43.245Z,84.56
2023-02-17T19:04:11.993Z,84.87
2023-02-17T19:06:40.178Z,85.02
2023-02-17T19:09:08.012Z,84.95
2023-02-17T19:11:35.999Z,85.29
2023-02-17T19:14:05.137Z,85.60
2023-02-17T19:16:33.367Z,85.64
2023-02-17T19:19:01.914Z,85.90
2023-02-17T19:21:29.689Z,85.89
2023-02-17T19:23:57.654Z,86.24
2023-02-17T19:26:25.461Z,86.85
2023-02-17T19:28:53.223Z,86.82
2023-02-17T19:31:22.429Z,86.56
2023-02-17T19:33:50.560Z,86.99
2023-02-17T19:36:20.717Z,87.56
2023-02-17T19:38:49.615Z,87.07
2023-02-17T19:41:17.961Z,87.02
2023-02-17T19:43:46.394Z,87.54
2023-02-17T19:46:14.926Z,87.23
2023-02-17T19:48:44.116Z,87.90
2023-02-17T19:51:13.746Z,88.34
2023-02-17T19:53:43.034Z,88.04
2023-02-17T19:56:12.588Z,88.37
2023-02-17T19:58:41.031Z,88.28
2023-02-17T20:01:10.494Z,88.01
2023-02-17T20:03:38.464Z,88.11
2023-02-17T20:06:09.856Z,88.15
2023-02-17T20:08:39.651Z,88.43
2023-02-17T20:11:08.499Z,88.29
2023-02-17T20:13:45.342Z,88.40
2023-02-17T20:16:14.903Z,88.16
2023-02-17T20:18:45.385Z,88.04
2023-02-17T20:21:16.953Z,88.16
2023-02-17T20:23:44.833Z,88.10
2023-02-17T20:26:14.797Z,87.48
2023-02-17T20:28:42.626Z,87.16
2023-02-17T20:31:10.932Z,87.19
2023-02-17T20:33:39.286Z,87.58
2023-02-17T20:36:08.104Z,87.02
2023-02-17T20:38:38.274Z,87.30
2023-02-17T20:41:06.763Z,87.28
2023-02-17T20:43:34.789Z,86.63
2023-02-17T20:46:02.815Z,86.85
2023-02-17T20:48:30.667Z,86.62
2023-02-17T20:50:59.451Z,86.63
2023-02-17T20:53:27.465Z,87.02
2023-02-17T20:55:57.020Z,87.24
2023-02-17T20:58:24.767Z,87.00
2023-02-17T21:00:52.594Z,86.77
2023-02-17T21:03:20.402Z,86.78
2023-02-17T21:05:48.147Z,86.28
2023-02-17T21:08:15.862Z,86.74
2023-02-17T21:10:43.619Z,86.39
2023-02-17T21:13:12.810Z,86.84
2023-02-17T21:15:40.764Z,86.63
2023-02-17T21:18:08.940Z,86.20
2023-02-17T21:20:36.748Z,86.35
2023-02-17T21:23:04.502Z,86.54
2023-02-17T21:25:32.398Z,86.34
2023-02-17T21:28:00.121Z,86.59
2023-02-17T21:30:29.270Z,86.77
2023-02-17T21:32:56.997Z,86.77
2023-02-17T21:35:24.759Z,87.07
2023-02-17T21:37:52.526Z,86.73
2023-02-17T21:40:20.606Z,86.86
2023-02-17T21:43:06.170Z,87.24
2023-02-17T21:45:39.610Z,86.76
2023-02-17T21:48:07.754Z,87.35
2023-02-17T21:50:35.504Z,86.72
2023-02-17T21:53:03.268Z,86.88
2023-02-17T21:55:31.048Z,87.51
2023-02-17T21:57:58.908Z,87.19
2023-02-17T22:00:26.760Z,87.18
2023-02-17T22:02:55.923Z,87.62
2023-02-17T22:05:23.710Z,87.63
2023-02-17T22:07:51.904Z,87.75
2023-02-17T22:10:19.946Z,87.90
2023-02-17T22:12:47.762Z,87.58
2023-02-17T22:15:16.248Z,87.61
2023-02-17T22:17:44.054Z,87.72
2023-02-17T22:20:15.169Z,87.55
2023-02-17T22:22:42.972Z,87.57
2023-02-17T22:25:10.749Z,87.69
2023-02-17T22:27:38.523Z,87.51
2023-02-17T22:30:08.524Z,87.48
2023-02-17T22:32:36.715Z,87.81
2023-02-17T22:35:04.710Z,87.96
2023-02-17T22:37:33.835Z,87.87
2023-02-17T22:40:01.615Z,88.04
2023-02-17T22:42:29.564Z,88.11
2023-02-17T22:44:57.302Z,88.30
2023-02-17T22:47:25.046Z,88.88
2023-02-17T22:49:52.811Z,88.91
2023-02-17T22:52:20.599Z,88.27
2023-02-17T22:54:49.819Z,88.44
2023-02-17T22:57:17.583Z,87.66
2023-02-17T22:59:45.356Z,88.02
2023-02-17T23:02:13.230Z,87.25
2023-02-17T23:04:43.253Z,87.47
2023-02-17T23:07:11.052Z,87.18
2023-02-17T23:09:38.751Z,86.84
2023-02-17T23:12:08.629Z,86.58
2023-02-17T23:14:38.424Z,86.62
2023-02-17T23:17:09.518Z,87.36
2023-02-17T23:19:38.106Z,87.38
2023-02-17T23:22:08.215Z,87.46
2023-02-17T23:24:36.029Z,87.17
2023-02-17T23:27:04.029Z,87.13
2023-02-17T23:29:33.431Z,87.62
2023-02-17T23:32:01.911Z,87.95
2023-02-17T23:34:30.023Z,88.03
2023-02-17T23:36:58.271Z,88.06
2023-02-17T23:39:26.646Z,87.63
2023-02-17T23:41:54.486Z,87.90
2023-02-17T23:44:22.380Z,88.21
2023-02-17T23:46:51.855Z,87.82
2023-02-17T23:49:19.888Z,87.49
2023-02-17T23:51:48.116Z,87.89
2023-02-17T23:54:16.466Z,87.67
2023-02-17T23:56:44.831Z,87.74
2023-02-17T23:59:12.896Z,88.25
